AirNav   TITAN Aviation Fuels
 
 975 users online  

3AZ6 Banner Del E Webb Medical Center Heliport
Sun City West, Arizona, USA

GOING TO SUN CITY WEST?


FAA INFORMATION EFFECTIVE 08 SEPTEMBER 2022

Location

FAA Identifier: 3AZ6
Lat/Long: 33-39-33.6600N 112-22-24.5400W
33-39.561000N 112-22.409000W
33.6593500,-112.3734833
(estimated)
Elevation: 1255 ft. / 383 m (estimated)
Variation: 13E (1985)
Time zone: UTC -7 (year round; does not observe DST)
Zip code: 85375

Heliport Operations

Heliport use: Private use, MEDICAL USE
Activation date: 04/1988
Control tower: no
ARTCC: ALBUQUERQUE CENTER
FSS: PRESCOTT FLIGHT SERVICE STATION
Attendance: UNATNDD
Wind indicator: yes
Segmented circle: no
Lights: SS-SR

Heliport Communications

WX AWOS-3 at GEU (9 nm SE): PHONE 623-877-8609
WX ASOS at DVT (15 nm E): 126.5 (623-587-7764)

Nearby radio navigation aids

VOR radial/distance  VOR name  Freq  Var
PXRr292/24.3PHOENIX VORTAC115.6012E
BXKr047/25.7BUCKEYE VORTAC110.6014E

Heliport Services

Runway Information

Helipad H1

Dimensions: 50 x 50 ft. / 15 x 15 m
Surface: concrete
Runway edge lights: PERI
Latitude: 33-39.561000N
Longitude: 112-22.409000W
Elevation: 1255.0 ft.
Traffic pattern: leftleft

Heliport Ownership and Management from official FAA records

Ownership: Privately-owned
Owner: BANNER DEL E. WEBB MEDICAL CENTER
14502 W MEEKER BLVD
SUN CITY WEST, AZ 85375
Phone (623) 524-4089
Manager: CHRIS CARLTON
14502 W MEEKER BLVD
SUN CITY WEST, AZ 85375
Phone (623) 524-4433

Additional Remarks

FOR CD CTC LUKE APCH AT 623-856-7361. IF UNA, CTC PHOENIX APCH AT 602-306-2565.

Instrument Procedures

There are no published instrument procedures at 3AZ6.

Some nearby airports with instrument procedures:

KLUF - Luke Air Force Base (7 nm S)
KGEU - Glendale Municipal Airport (9 nm SE)
KGYR - Phoenix Goodyear Airport (14 nm S)
KDVT - Phoenix Deer Valley Airport (15 nm E)
KPHX - Phoenix Sky Harbor International Airport (23 nm SE)
 
Loc | Ops | Rwys | IFR | FBO | Links
Com | Nav | Svcs | Stats | Notes
Area around 3AZ6 (Banner Del E Webb Medical Center Heliport)
 
Road maps at: MapQuest Bing Google
 
Aerial photo
No photo
 
Sectional chart

 
Airport distance calculator
Flying to Banner Del E Webb Medical Center Heliport? Find the distance to fly.

From to 3AZ6

Sunrise and sunset
Times for 02-Oct-2022
 Local
(UTC-7)
 Zulu
(UTC)
Morning civil twilight06:0113:01
Sunrise06:2613:26
Sunset18:1201:12
Evening civil twilight18:3701:37

Current date and time
Zulu (UTC)  02-Oct-2022 18:37:57
Local (UTC-7)  02-Oct-2022 11:37:57
 
METAR
KGEU 
8nm SE 
021752Z VRB03KT 10SM FEW150 31/16 A2992
KLUF 
9nm S 
021755Z AUTO 34003KT 10SM CLR 32/16 A2991 RMK AO2 SLP113 T03180157 10318 20238 50001 $
KGYR 
15nm S 
021747Z VRB04KT 10SM FEW070 31/18 A2994
KDVT 
15nm E 
021753Z 21006KT 10SM CLR 31/14 A2995 RMK AO2 SLP116 T03060139 10311 20233 50001
TAF
KDVT 
15nm E 
021720Z 0218/0318 18008KT P6SM FEW100 FEW150 FM022200 23009KT P6SM FEW100 FEW150 FM030400 03008KT P6SM FEW100 SCT150 SCT250 FM030900 VRB04KT P6SM FEW100 FEW150
NOTAMs
Click for the latest NOTAMs
NOTAMs are issued by the DoD/FAA and will open in a separate window not controlled by AirNav.

 

 
 

Would you like to see your business listed on this page?

 If your business provides an interesting product or service to pilots, flight crews, aircraft, or users of the Banner Del E Webb Medical Center Heliport, you should consider listing it here.  To start the listing process, click on the button below
 
Add a business
 

Other Pages about Banner Del E Webb Medical Center Heliport

Update a link
 
Copyright © AirNav, LLC. All rights reserved. Privacy Policy  Contact